sensor_id;sensor_type;location;lat;lon;timestamp;temperature;humidity
1678;DHT22;6034;46.864;15.216;2023-10-09T05:00:20;11.80;99.90
1678;DHT22;6034;46.864;15.216;2023-10-09T05:03:09;11.80;99.90
1678;DHT22;6034;46.864;15.216;2023-10-09T05:05:38;11.50;99.90
1678;DHT22;6034;46.864;15.216;2023-10-09T05:08:25;11.30;99.90
1678;DHT22;6034;46.864;15.216;2023-10-09T05:10:56;11.40;99.90
1678;DHT22;6034;46.864;15.216;2023-10-09T05:13:41;11.40;99.90
1678;DHT22;6034;46.864;15.216;2023-10-09T05:16:14;11.60;99.90
1678;DHT22;6034;46.864;15.216;2023-10-09T05:18:45;11.60;99.90
1678;DHT22;6034;46.864;15.216;2023-10-09T05:21:22;11.60;99.90
1678;DHT22;6034;46.864;15.216;2023-10-09T05:24:11;11.60;99.90
1678;DHT22;6034;46.864;15.216;2023-10-09T05:26:46;11.60;99.90
1678;DHT22;6034;46.864;15.216;2023-10-09T05:29:40;11.50;99.90
1678;DHT22;6034;46.864;15.216;2023-10-09T05:32:15;11.60;99.90
1678;DHT22;6034;46.864;15.216;2023-10-09T05:34:53;11.50;99.90
1678;DHT22;6034;46.864;15.216;2023-10-09T05:37:41;11.60;99.90
1678;DHT22;6034;46.864;15.216;2023-10-09T05:40:13;11.60;99.90
1678;DHT22;6034;46.864;15.216;2023-10-09T05:42:56;11.70;99.90
1678;DHT22;6034;46.864;15.216;2023-10-09T05:45:26;11.70;99.90
1678;DHT22;6034;46.864;15.216;2023-10-09T05:48:12;11.70;99.90
1678;DHT22;6034;46.864;15.216;2023-10-09T05:50:57;11.70;99.90
1678;DHT22;6034;46.864;15.216;2023-10-09T05:54:00;11.70;99.90
1678;DHT22;6034;46.864;15.216;2023-10-09T05:57:09;11.70;99.90
1678;DHT22;6034;46.864;15.216;2023-10-09T05:59:51;11.80;99.90
1678;DHT22;6034;46.864;15.216;2023-10-09T06:02:53;11.70;99.90
1678;DHT22;6034;46.864;15.216;2023-10-09T06:05:39;11.80;99.90
1678;DHT22;6034;46.864;15.216;2023-10-09T06:08:28;11.80;99.90
1678;DHT22;6034;46.864;15.216;2023-10-09T06:11:25;11.80;99.90
1678;DHT22;6034;46.864;15.216;2023-10-09T06:14:12;11.80;99.90
1678;DHT22;6034;46.864;15.216;2023-10-09T06:16:41;11.90;99.90
1678;DHT22;6034;46.864;15.216;2023-10-09T06:19:07;11.90;99.90
1678;DHT22;6034;46.864;15.216;2023-10-09T06:21:40;12.00;99.90
1678;DHT22;6034;46.864;15.216;2023-10-09T06:24:33;12.10;99.90
1678;DHT22;6034;46.864;15.216;2023-10-09T06:27:16;12.10;99.90
1678;DHT22;6034;46.864;15.216;2023-10-09T06:30:12;12.10;99.90
1678;DHT22;6034;46.864;15.216;2023-10-09T06:32:50;12.20;99.90
1678;DHT22;6034;46.864;15.216;2023-10-09T06:35:24;12.10;99.90
1678;DHT22;6034;46.864;15.216;2023-10-09T06:37:58;12.10;99.90
1678;DHT22;6034;46.864;15.216;2023-10-09T06:40:52;12.20;99.90
1678;DHT22;6034;46.864;15.216;2023-10-09T06:43:37;12.20;99.90
1678;DHT22;6034;46.864;15.216;2023-10-09T06:46:15;12.20;99.90
1678;DHT22;6034;46.864;15.216;2023-10-09T06:49:08;11.90;99.90
1678;DHT22;6034;46.864;15.216;2023-10-09T06:51:49;12.00;99.90
1678;DHT22;6034;46.864;15.216;2023-10-09T06:54:22;12.20;99.90
1678;DHT22;6034;46.864;15.216;2023-10-09T06:56:51;12.40;99.90
1678;DHT22;6034;46.864;15.216;2023-10-09T06:59:36;12.60;99.90
1678;DHT22;6034;46.864;15.216;2023-10-09T07:02:29;12.60;99.90
1678;DHT22;6034;46.864;15.216;2023-10-09T07:04:57;12.60;99.90
1678;DHT22;6034;46.864;15.216;2023-10-09T07:07:36;12.70;99.90
1678;DHT22;6034;46.864;15.216;2023-10-09T07:10:17;12.60;99.90
1678;DHT22;6034;46.864;15.216;2023-10-09T07:13:00;12.50;99.90
1678;DHT22;6034;46.864;15.216;2023-10-09T07:15:28;12.40;99.90
1678;DHT22;6034;46.864;15.216;2023-10-09T07:18:12;12.50;99.90
1678;DHT22;6034;46.864;15.216;2023-10-09T07:21:06;12.60;99.90
1678;DHT22;6034;46.864;15.216;2023-10-09T07:23:37;12.60;99.90
1678;DHT22;6034;46.864;15.216;2023-10-09T07:26:15;12.70;99.90
1678;DHT22;6034;46.864;15.216;2023-10-09T07:28:49;12.80;99.90
1678;DHT22;6034;46.864;15.216;2023-10-09T07:31:20;13.00;99.90
1678;DHT22;6034;46.864;15.216;2023-10-09T07:34:05;13.00;99.90
1678;DHT22;6034;46.864;15.216;2023-10-09T07:36:55;13.10;99.90
1678;DHT22;6034;46.864;15.216;2023-10-09T07:39:22;13.10;99.90
1678;DHT22;6034;46.864;15.216;2023-10-09T07:42:04;13.30;99.90
1678;DHT22;6034;46.864;15.216;2023-10-09T07:44:45;13.30;99.90
1678;DHT22;6034;46.864;15.216;2023-10-09T07:47:19;13.40;99.90
1678;DHT22;6034;46.864;15.216;2023-10-09T07:50:11;13.40;99.90
1678;DHT22;6034;46.864;15.216;2023-10-09T07:52:42;13.50;99.90
1678;DHT22;6034;46.864;15.216;2023-10-09T07:55:10;13.30;99.90
1678;DHT22;6034;46.864;15.216;2023-10-09T07:57:53;13.50;99.90
1678;DHT22;6034;46.864;15.216;2023-10-09T08:00:21;13.70;99.90
1678;DHT22;6034;46.864;15.216;2023-10-09T08:03:23;13.60;99.90
1678;DHT22;6034;46.864;15.216;2023-10-09T08:05:51;13.70;99.90
1678;DHT22;6034;46.864;15.216;2023-10-09T08:08:32;13.90;99.90
1678;DHT22;6034;46.864;15.216;2023-10-09T08:11:21;13.70;99.90
1678;DHT22;6034;46.864;15.216;2023-10-09T08:14:07;13.70;99.90
1678;DHT22;6034;46.864;15.216;2023-10-09T08:16:49;13.40;99.90
1678;DHT22;6034;46.864;15.216;2023-10-09T08:19:17;13.80;99.90
1678;DHT22;6034;46.864;15.216;2023-10-09T08:21:58;13.90;99.90
1678;DHT22;6034;46.864;15.216;2023-10-09T08:24:39;14.30;99.90
1678;DHT22;6034;46.864;15.216;2023-10-09T08:27:08;14.30;99.90
1678;DHT22;6034;46.864;15.216;2023-10-09T08:29:53;14.60;99.90
1678;DHT22;6034;46.864;15.216;2023-10-09T08:32:42;14.60;99.90
1678;DHT22;6034;46.864;15.216;2023-10-09T08:35:22;14.40;99.90
1678;DHT22;6034;46.864;15.216;2023-10-09T08:37:55;14.50;99.90
1678;DHT22;6034;46.864;15.216;2023-10-09T08:40:30;14.40;99.90
1678;DHT22;6034;46.864;15.216;2023-10-09T08:43:07;14.30;99.90
1678;DHT22;6034;46.864;15.216;2023-10-09T08:45:38;14.50;99.90
1678;DHT22;6034;46.864;15.216;2023-10-09T08:48:07;14.40;99.90
1678;DHT22;6034;46.864;15.216;2023-10-09T08:50:41;14.00;99.90
1678;DHT22;6034;46.864;15.216;2023-10-09T08:53:11;14.30;99.90
1678;DHT22;6034;46.864;15.216;2023-10-09T08:55:39;14.10;99.90
1678;DHT22;6034;46.864;15.216;2023-10-09T08:58:07;14.30;99.90
1678;DHT22;6034;46.864;15.216;2023-10-09T09:00:45;14.30;99.90
1678;DHT22;6034;46.864;15.216;2023-10-09T09:03:13;14.60;99.90
1678;DHT22;6034;46.864;15.216;2023-10-09T09:05:43;14.60;99.90
1678;DHT22;6034;46.864;15.216;2023-10-09T09:08:22;14.40;99.90
1678;DHT22;6034;46.864;15.216;2023-10-09T09:10:56;13.90;99.90
1678;DHT22;6034;46.864;15.216;2023-10-09T09:13:31;13.70;99.90
1678;DHT22;6034;46.864;15.216;2023-10-09T09:16:01;13.90;99.90
1678;DHT22;6034;46.864;15.216;2023-10-09T09:18:28;14.30;99.90
1678;DHT22;6034;46.864;15.216;2023-10-09T09:21:16;14.30;99.90
1678;DHT22;6034;46.864;15.216;2023-10-09T09:23:54;14.40;99.90
1678;DHT22;6034;46.864;15.216;2023-10-09T09:26:44;14.00;99.90
1678;DHT22;6034;46.864;15.216;2023-10-09T09:29:39;14.30;99.90
1678;DHT22;6034;46.864;15.216;2023-10-09T09:32:10;14.40;99.90
1678;DHT22;6034;46.864;15.216;2023-10-09T09:34:44;14.00;99.90
1678;DHT22;6034;46.864;15.216;2023-10-09T09:37:19;14.00;99.90
1678;DHT22;6034;46.864;15.216;2023-10-09T09:39:47;14.10;99.90
1678;DHT22;6034;46.864;15.216;2023-10-09T09:42:17;14.20;99.90
1678;DHT22;6034;46.864;15.216;2023-10-09T09:44:51;13.80;99.90
1678;DHT22;6034;46.864;15.216;2023-10-09T09:47:20;14.20;99.90
1678;DHT22;6034;46.864;15.216;2023-10-09T09:49:53;14.50;99.90
1678;DHT22;6034;46.864;15.216;2023-10-09T09:52:26;14.30;99.90
1678;DHT22;6034;46.864;15.216;2023-10-09T09:54:55;14.40;99.90
1678;DHT22;6034;46.864;15.216;2023-10-09T09:57:24;14.60;99.90
1678;DHT22;6034;46.864;15.216;2023-10-09T09:59:55;14.70;99.90
1678;DHT22;6034;46.864;15.216;2023-10-09T10:02:29;14.70;99.90
1678;DHT22;6034;46.864;15.216;2023-10-09T10:05:01;14.60;99.90
1678;DHT22;6034;46.864;15.216;2023-10-09T10:07:33;14.70;99.90
1678;DHT22;6034;46.864;15.216;2023-10-09T10:10:34;14.90;99.90
1678;DHT22;6034;46.864;15.216;2023-10-09T10:13:03;14.60;99.90
1678;DHT22;6034;46.864;15.216;2023-10-09T10:15:59;14.30;99.90
1678;DHT22;6034;46.864;15.216;2023-10-09T10:18:33;14.30;99.90
1678;DHT22;6034;46.864;15.216;2023-10-09T10:21:18;14.80;99.90
1678;DHT22;6034;46.864;15.216;2023-10-09T10:23:59;14.60;99.90
1678;DHT22;6034;46.864;15.216;2023-10-09T10:26:40;14.50;99.90
1678;DHT22;6034;46.864;15.216;2023-10-09T10:29:17;14.80;99.90
1678;DHT22;6034;46.864;15.216;2023-10-09T10:31:56;14.90;99.90
1678;DHT22;6034;46.864;15.216;2023-10-09T10:34:53;15.20;99.90
1678;DHT22;6034;46.864;15.216;2023-10-09T10:37:36;15.20;99.90
1678;DHT22;6034;46.864;15.216;2023-10-09T10:40:22;15.50;99.90
1678;DHT22;6034;46.864;15.216;2023-10-09T10:43:03;15.50;99.90
1678;DHT22;6034;46.864;15.216;2023-10-09T10:45:39;15.80;99.90
1678;DHT22;6034;46.864;15.216;2023-10-09T10:48:10;16.00;99.90
1678;DHT22;6034;46.864;15.216;2023-10-09T10:50:56;15.70;99.90
1678;DHT22;6034;46.864;15.216;2023-10-09T10:53:24;16.00;99.90
1678;DHT22;6034;46.864;15.216;2023-10-09T10:55:55;16.30;99.90
1678;DHT22;6034;46.864;15.216;2023-10-09T10:58:52;16.40;99.90
1678;DHT22;6034;46.864;15.216;2023-10-09T11:01:37;16.60;99.90
1678;DHT22;6034;46.864;15.216;2023-10-09T11:04:20;16.60;99.90
1678;DHT22;6034;46.864;15.216;2023-10-09T11:07:06;16.80;99.90
1678;DHT22;6034;46.864;15.216;2023-10-09T11:09:45;15.90;99.90
1678;DHT22;6034;46.864;15.216;2023-10-09T11:12:43;16.30;99.90
1678;DHT22;6034;46.864;15.216;2023-10-09T11:15:33;16.30;99.90
1678;DHT22;6034;46.864;15.216;2023-10-09T11:18:15;16.30;99.90
1678;DHT22;6034;46.864;15.216;2023-10-09T11:20:50;16.60;99.90
1678;DHT22;6034;46.864;15.216;2023-10-09T11:23:45;16.80;99.90
1678;DHT22;6034;46.864;15.216;2023-10-09T11:26:25;17.00;99.90
1678;DHT22;6034;46.864;15.216;2023-10-09T11:29:09;17.10;99.90
1678;DHT22;6034;46.864;15.216;2023-10-09T11:32:00;17.30;99.90
1678;DHT22;6034;46.864;15.216;2023-10-09T11:34:27;17.40;99.90
1678;DHT22;6034;46.864;15.216;2023-10-09T11:36:59;17.40;99.90
1678;DHT22;6034;46.864;15.216;2023-10-09T11:39:29;17.20;99.90
1678;DHT22;6034;46.864;15.216;2023-10-09T11:42:04;17.30;99.90
1678;DHT22;6034;46.864;15.216;2023-10-09T11:44:41;17.30;99.90
1678;DHT22;6034;46.864;15.216;2023-10-09T11:47:21;17.40;99.90
1678;DHT22;6034;46.864;15.216;2023-10-09T11:49:52;17.60;99.90
1678;DHT22;6034;46.864;15.216;2023-10-09T11:52:55;17.70;99.90
1678;DHT22;6034;46.864;15.216;2023-10-09T11:55:41;17.70;99.90
1678;DHT22;6034;46.864;15.216;2023-10-09T11:58:14;17.80;99.90
1678;DHT22;6034;46.864;15.216;2023-10-09T12:00:52;17.80;99.90
1678;DHT22;6034;46.864;15.216;2023-10-09T12:03:24;18.00;99.90
1678;DHT22;6034;46.864;15.216;2023-10-09T12:05:55;18.10;99.90
1678;DHT22;6034;46.864;15.216;2023-10-09T12:08:24;18.20;99.90
1678;DHT22;6034;46.864;15.216;2023-10-09T12:10:55;18.10;99.90
1678;DHT22;6034;46.864;15.216;2023-10-09T12:13:23;18.10;99.90
1678;DHT22;6034;46.864;15.216;2023-10-09T12:15:50;18.00;99.90
1678;DHT22;6034;46.864;15.216;2023-10-09T12:18:20;18.00;99.90
1678;DHT22;6034;46.864;15.216;2023-10-09T12:20:47;18.00;99.90
1678;DHT22;6034;46.864;15.216;2023-10-09T12:23:18;18.20;99.90
1678;DHT22;6034;46.864;15.216;2023-10-09T12:25:48;17.90;99.90
1678;DHT22;6034;46.864;15.216;2023-10-09T12:28:17;18.10;99.90
1678;DHT22;6034;46.864;15.216;2023-10-09T12:30:46;18.20;99.90
1678;DHT22;6034;46.864;15.216;2023-10-09T12:33:19;18.10;99.90
1678;DHT22;6034;46.864;15.216;2023-10-09T12:35:54;18.10;99.90
1678;DHT22;6034;46.864;15.216;2023-10-09T12:38:25;18.10;99.90
1678;DHT22;6034;46.864;15.216;2023-10-09T12:41:03;17.90;99.90
1678;DHT22;6034;46.864;15.216;2023-10-09T12:43:36;18.90;99.90
1678;DHT22;6034;46.864;15.216;2023-10-09T12:46:06;18.10;99.90
1678;DHT22;6034;46.864;15.216;2023-10-09T12:48:35;18.30;99.90
1678;DHT22;6034;46.864;15.216;2023-10-09T12:51:03;18.10;99.90
1678;DHT22;6034;46.864;15.216;2023-10-09T12:53:32;18.00;99.90
1678;DHT22;6034;46.864;15.216;2023-10-09T12:55:59;18.10;99.90
1678;DHT22;6034;46.864;15.216;2023-10-09T12:58:26;18.10;99.90
1678;DHT22;6034;46.864;15.216;2023-10-09T13:00:55;17.80;99.90
1678;DHT22;6034;46.864;15.216;2023-10-09T13:03:24;18.00;99.90
1678;DHT22;6034;46.864;15.216;2023-10-09T13:05:54;18.10;99.90
1678;DHT22;6034;46.864;15.216;2023-10-09T13:08:29;18.00;99.90
1678;DHT22;6034;46.864;15.216;2023-10-09T13:11:04;18.10;99.90
1678;DHT22;6034;46.864;15.216;2023-10-09T13:13:36;18.20;99.90
1678;DHT22;6034;46.864;15.216;2023-10-09T13:16:12;18.10;99.90
1678;DHT22;6034;46.864;15.216;2023-10-09T13:18:46;18.00;99.90
1678;DHT22;6034;46.864;15.216;2023-10-09T13:21:17;18.20;99.90
1678;DHT22;6034;46.864;15.216;2023-10-09T13:23:45;18.10;99.90
1678;DHT22;6034;46.864;15.216;2023-10-09T13:26:15;18.20;99.90
1678;DHT22;6034;46.864;15.216;2023-10-09T13:28:50;18.20;99.90
1678;DHT22;6034;46.864;15.216;2023-10-09T13:31:21;18.30;99.90
1678;DHT22;6034;46.864;15.216;2023-10-09T13:33:52;17.90;99.90
1678;DHT22;6034;46.864;15.216;2023-10-09T13:36:23;18.10;99.90
1678;DHT22;6034;46.864;15.216;2023-10-09T13:38:59;18.20;99.90
1678;DHT22;6034;46.864;15.216;2023-10-09T13:41:45;18.30;99.90
1678;DHT22;6034;46.864;15.216;2023-10-09T13:44:13;18.20;99.90
1678;DHT22;6034;46.864;15.216;2023-10-09T13:46:44;18.40;99.90
1678;DHT22;6034;46.864;15.216;2023-10-09T13:49:11;18.40;99.90
1678;DHT22;6034;46.864;15.216;2023-10-09T13:51:40;18.20;99.90
1678;DHT22;6034;46.864;15.216;2023-10-09T13:54:10;18.20;99.90
1678;DHT22;6034;46.864;15.216;2023-10-09T13:56:45;18.40;99.90
1678;DHT22;6034;46.864;15.216;2023-10-09T13:59:12;18.50;99.90
1678;DHT22;6034;46.864;15.216;2023-10-09T14:01:39;18.60;99.90
1678;DHT22;6034;46.864;15.216;2023-10-09T14:04:15;18.60;99.90
1678;DHT22;6034;46.864;15.216;2023-10-09T14:06:45;18.70;99.90
1678;DHT22;6034;46.864;15.216;2023-10-09T14:09:13;18.70;99.90
1678;DHT22;6034;46.864;15.216;2023-10-09T14:12:09;18.40;99.90
1678;DHT22;6034;46.864;15.216;2023-10-09T14:14:37;18.50;99.90
1678;DHT22;6034;46.864;15.216;2023-10-09T14:17:06;18.70;99.90
1678;DHT22;6034;46.864;15.216;2023-10-09T14:19:38;18.60;99.90
1678;DHT22;6034;46.864;15.216;2023-10-09T14:22:06;18.80;99.90
1678;DHT22;6034;46.864;15.216;2023-10-09T14:24:33;18.80;99.90
1678;DHT22;6034;46.864;15.216;2023-10-09T14:27:02;18.80;99.90
1678;DHT22;6034;46.864;15.216;2023-10-09T14:29:33;18.90;99.90
1678;DHT22;6034;46.864;15.216;2023-10-09T14:32:04;18.70;99.90
1678;DHT22;6034;46.864;15.216;2023-10-09T14:34:31;18.80;99.90
1678;DHT22;6034;46.864;15.216;2023-10-09T14:37:01;18.90;99.90
1678;DHT22;6034;46.864;15.216;2023-10-09T14:39:29;18.90;99.90
1678;DHT22;6034;46.864;15.216;2023-10-09T14:41:59;18.90;99.90
1678;DHT22;6034;46.864;15.216;2023-10-09T14:44:28;19.00;99.90
1678;DHT22;6034;46.864;15.216;2023-10-09T14:46:57;18.90;99.90
1678;DHT22;6034;46.864;15.216;2023-10-09T14:49:25;18.90;99.90
1678;DHT22;6034;46.864;15.216;2023-10-09T14:52:01;19.00;99.90
1678;DHT22;6034;46.864;15.216;2023-10-09T14:54:31;18.90;99.90
1678;DHT22;6034;46.864;15.216;2023-10-09T14:56:59;19.00;99.90
1678;DHT22;6034;46.864;15.216;2023-10-09T14:59:32;18.90;99.90
1678;DHT22;6034;46.864;15.216;2023-10-09T15:02:01;18.70;99.90
1678;DHT22;6034;46.864;15.216;2023-10-09T15:04:31;18.70;99.90
1678;DHT22;6034;46.864;15.216;2023-10-09T15:07:01;18.80;99.90
1678;DHT22;6034;46.864;15.216;2023-10-09T15:09:32;18.60;99.90
1678;DHT22;6034;46.864;15.216;2023-10-09T15:12:02;18.60;99.90
1678;DHT22;6034;46.864;15.216;2023-10-09T15:14:32;18.60;99.90
1678;DHT22;6034;46.864;15.216;2023-10-09T15:17:01;18.60;99.90
1678;DHT22;6034;46.864;15.216;2023-10-09T15:19:28;18.60;99.90
1678;DHT22;6034;46.864;15.216;2023-10-09T15:21:56;18.60;99.90
1678;DHT22;6034;46.864;15.216;2023-10-09T15:24:24;18.60;99.90
1678;DHT22;6034;46.864;15.216;2023-10-09T15:26:53;18.60;99.90
1678;DHT22;6034;46.864;15.216;2023-10-09T15:29:23;18.60;99.90
1678;DHT22;6034;46.864;15.216;2023-10-09T15:31:55;18.70;99.90
1678;DHT22;6034;46.864;15.216;2023-10-09T15:34:25;18.60;99.90
1678;DHT22;6034;46.864;15.216;2023-10-09T15:36:53;18.50;99.90
1678;DHT22;6034;46.864;15.216;2023-10-09T15:39:20;18.60;99.90
1678;DHT22;6034;46.864;15.216;2023-10-09T15:41:49;18.50;99.90
1678;DHT22;6034;46.864;15.216;2023-10-09T15:44:16;18.50;99.90
1678;DHT22;6034;46.864;15.216;2023-10-09T15:46:44;18.50;99.90
1678;DHT22;6034;46.864;15.216;2023-10-09T15:49:12;18.40;99.90
1678;DHT22;6034;46.864;15.216;2023-10-09T15:51:42;18.40;99.90
1678;DHT22;6034;46.864;15.216;2023-10-09T15:54:13;18.30;99.90
1678;DHT22;6034;46.864;15.216;2023-10-09T15:56:44;18.10;99.90
1678;DHT22;6034;46.864;15.216;2023-10-09T15:59:12;18.30;99.90
1678;DHT22;6034;46.864;15.216;2023-10-09T16:01:39;18.30;99.90
1678;DHT22;6034;46.864;15.216;2023-10-09T16:04:09;18.40;99.90
1678;DHT22;6034;46.864;15.216;2023-10-09T16:06:37;18.30;99.90
1678;DHT22;6034;46.864;15.216;2023-10-09T16:09:07;18.20;99.90
1678;DHT22;6034;46.864;15.216;2023-10-09T16:11:37;18.30;99.90
1678;DHT22;6034;46.864;15.216;2023-10-09T16:14:05;18.20;99.90
1678;DHT22;6034;46.864;15.216;2023-10-09T16:16:36;18.10;99.90
1678;DHT22;6034;46.864;15.216;2023-10-09T16:19:08;18.10;99.90
1678;DHT22;6034;46.864;15.216;2023-10-09T16:21:36;17.90;99.90
1678;DHT22;6034;46.864;15.216;2023-10-09T16:24:07;18.00;99.90
1678;DHT22;6034;46.864;15.216;2023-10-09T16:26:36;18.00;99.90
1678;DHT22;6034;46.864;15.216;2023-10-09T16:29:09;17.90;99.90
1678;DHT22;6034;46.864;15.216;2023-10-09T16:31:39;17.80;99.90
1678;DHT22;6034;46.864;15.216;2023-10-09T16:34:13;17.90;99.90
1678;DHT22;6034;46.864;15.216;2023-10-09T16:36:46;17.80;99.90
1678;DHT22;6034;46.864;15.216;2023-10-09T16:39:27;18.00;99.90
1678;DHT22;6034;46.864;15.216;2023-10-09T16:42:06;17.80;99.90
1678;DHT22;6034;46.864;15.216;2023-10-09T16:44:38;17.80;99.90
1678;DHT22;6034;46.864;15.216;2023-10-09T16:47:14;17.80;99.90
1678;DHT22;6034;46.864;15.216;2023-10-09T16:49:44;17.70;99.90
1678;DHT22;6034;46.864;15.216;2023-10-09T16:52:20;17.60;99.90
1678;DHT22;6034;46.864;15.216;2023-10-09T16:54:57;17.60;99.90
1678;DHT22;6034;46.864;15.216;2023-10-09T16:57:29;17.50;99.90
1678;DHT22;6034;46.864;15.216;2023-10-09T16:59:58;17.50;99.90
1678;DHT22;6034;46.864;15.216;2023-10-09T17:02:26;17.40;99.90
1678;DHT22;6034;46.864;15.216;2023-10-09T17:04:57;17.50;99.90
1678;DHT22;6034;46.864;15.216;2023-10-09T17:07:25;17.40;99.90
1678;DHT22;6034;46.864;15.216;2023-10-09T17:09:56;17.40;99.90
1678;DHT22;6034;46.864;15.216;2023-10-09T17:12:25;17.40;99.90
1678;DHT22;6034;46.864;15.216;2023-10-09T17:14:58;17.40;99.90
1678;DHT22;6034;46.864;15.216;2023-10-09T17:17:26;17.50;99.90
1678;DHT22;6034;46.864;15.216;2023-10-09T17:19:57;17.40;99.90
1678;DHT22;6034;46.864;15.216;2023-10-09T17:22:36;17.40;99.90
1678;DHT22;6034;46.864;15.216;2023-10-09T17:25:07;17.70;99.90
1678;DHT22;6034;46.864;15.216;2023-10-09T17:27:39;17.40;99.90
1678;DHT22;6034;46.864;15.216;2023-10-09T17:30:10;17.40;99.90
1678;DHT22;6034;46.864;15.216;2023-10-09T17:32:44;17.30;99.90
1678;DHT22;6034;46.864;15.216;2023-10-09T17:35:13;17.30;99.90
1678;DHT22;6034;46.864;15.216;2023-10-09T17:37:43;17.30;99.90
1678;DHT22;6034;46.864;15.216;2023-10-09T17:40:15;17.20;99.90
1678;DHT22;6034;46.864;15.216;2023-10-09T17:42:44;17.20;99.90
1678;DHT22;6034;46.864;15.216;2023-10-09T17:45:13;17.20;99.90
1678;DHT22;6034;46.864;15.216;2023-10-09T17:47:48;17.30;99.90
1678;DHT22;6034;46.864;15.216;2023-10-09T17:50:17;17.20;99.90
1678;DHT22;6034;46.864;15.216;2023-10-09T17:52:48;17.20;99.90
1678;DHT22;6034;46.864;15.216;2023-10-09T17:55:19;17.00;99.90
1678;DHT22;6034;46.864;15.216;2023-10-09T17:57:49;17.10;99.90
1678;DHT22;6034;46.864;15.216;2023-10-09T18:00:17;17.20;99.90
1678;DHT22;6034;46.864;15.216;2023-10-09T18:02:50;17.10;99.90
1678;DHT22;6034;46.864;15.216;2023-10-09T18:05:19;17.10;99.90
1678;DHT22;6034;46.864;15.216;2023-10-09T18:07:47;17.00;99.90
1678;DHT22;6034;46.864;15.216;2023-10-09T18:10:21;17.00;99.90
1678;DHT22;6034;46.864;15.216;2023-10-09T18:12:50;17.10;99.90
1678;DHT22;6034;46.864;15.216;2023-10-09T18:15:18;17.00;99.90
1678;DHT22;6034;46.864;15.216;2023-10-09T18:17:47;17.00;99.90
1678;DHT22;6034;46.864;15.216;2023-10-09T18:20:18;16.90;99.90
1678;DHT22;6034;46.864;15.216;2023-10-09T18:22:52;17.00;99.90
1678;DHT22;6034;46.864;15.216;2023-10-09T18:25:24;16.90;99.90
1678;DHT22;6034;46.864;15.216;2023-10-09T18:27:54;16.80;99.90
1678;DHT22;6034;46.864;15.216;2023-10-09T18:30:23;16.70;99.90
1678;DHT22;6034;46.864;15.216;2023-10-09T18:32:53;16.70;99.90
1678;DHT22;6034;46.864;15.216;2023-10-09T18:35:23;16.80;99.90
1678;DHT22;6034;46.864;15.216;2023-10-09T18:37:56;16.70;99.90
1678;DHT22;6034;46.864;15.216;2023-10-09T18:40:28;16.70;99.90
1678;DHT22;6034;46.864;15.216;2023-10-09T18:43:02;16.80;99.90
1678;DHT22;6034;46.864;15.216;2023-10-09T18:45:39;16.80;99.90
1678;DHT22;6034;46.864;15.216;2023-10-09T18:48:15;16.80;99.90
1678;DHT22;6034;46.864;15.216;2023-10-09T18:50:48;16.70;99.90
1678;DHT22;6034;46.864;15.216;2023-10-09T18:53:19;16.70;99.90
1678;DHT22;6034;46.864;15.216;2023-10-09T18:55:48;16.70;99.90
1678;DHT22;6034;46.864;15.216;2023-10-09T18:58:19;16.70;99.90
1678;DHT22;6034;46.864;15.216;2023-10-09T19:00:49;16.70;99.90
1678;DHT22;6034;46.864;15.216;2023-10-09T19:03:25;16.70;99.90
1678;DHT22;6034;46.864;15.216;2023-10-09T19:05:55;16.70;99.90
1678;DHT22;6034;46.864;15.216;2023-10-09T19:08:24;16.80;99.90
1678;DHT22;6034;46.864;15.216;2023-10-09T19:11:02;16.70;99.90
1678;DHT22;6034;46.864;15.216;2023-10-09T19:13:36;16.70;99.90
1678;DHT22;6034;46.864;15.216;2023-10-09T19:16:06;16.70;99.90
1678;DHT22;6034;46.864;15.216;2023-10-09T19:18:36;16.70;99.90
1678;DHT22;6034;46.864;15.216;2023-10-09T19:21:06;16.70;99.90
1678;DHT22;6034;46.864;15.216;2023-10-09T19:23:39;17.20;99.90
1678;DHT22;6034;46.864;15.216;2023-10-09T19:26:14;17.50;99.90
1678;DHT22;6034;46.864;15.216;2023-10-09T19:28:45;17.60;99.90
1678;DHT22;6034;46.864;15.216;2023-10-09T19:31:14;17.60;99.90
1678;DHT22;6034;46.864;15.216;2023-10-09T19:33:47;17.80;99.90
1678;DHT22;6034;46.864;15.216;2023-10-09T19:36:21;17.90;99.90
1678;DHT22;6034;46.864;15.216;2023-10-09T19:38:57;18.00;99.90
1678;DHT22;6034;46.864;15.216;2023-10-09T19:41:28;18.30;99.90
1678;DHT22;6034;46.864;15.216;2023-10-09T19:43:58;18.10;99.90
1678;DHT22;6034;46.864;15.216;2023-10-09T19:46:31;17.90;99.90
1678;DHT22;6034;46.864;15.216;2023-10-09T19:49:04;17.70;99.90
1678;DHT22;6034;46.864;15.216;2023-10-09T19:51:33;17.50;99.90
1678;DHT22;6034;46.864;15.216;2023-10-09T19:54:01;17.50;99.90
1678;DHT22;6034;46.864;15.216;2023-10-09T19:56:31;17.20;99.90
1678;DHT22;6034;46.864;15.216;2023-10-09T19:58:58;17.30;99.90
1678;DHT22;6034;46.864;15.216;2023-10-09T20:01:27;17.30;99.90
1678;DHT22;6034;46.864;15.216;2023-10-09T20:03:55;17.30;99.90
1678;DHT22;6034;46.864;15.216;2023-10-09T20:06:24;17.30;99.90
1678;DHT22;6034;46.864;15.216;2023-10-09T20:08:53;17.10;99.90
1678;DHT22;6034;46.864;15.216;2023-10-09T20:11:23;17.20;99.90
1678;DHT22;6034;46.864;15.216;2023-10-09T20:13:53;17.20;99.90
1678;DHT22;6034;46.864;15.216;2023-10-09T20:16:22;17.20;99.90
1678;DHT22;6034;46.864;15.216;2023-10-09T20:18:52;17.20;99.90
1678;DHT22;6034;46.864;15.216;2023-10-09T20:21:21;17.20;99.90
1678;DHT22;6034;46.864;15.216;2023-10-09T20:23:49;17.10;99.90
1678;DHT22;6034;46.864;15.216;2023-10-09T20:26:16;17.00;99.90
1678;DHT22;6034;46.864;15.216;2023-10-09T20:28:44;17.00;99.90
1678;DHT22;6034;46.864;15.216;2023-10-09T20:31:14;17.00;99.90
1678;DHT22;6034;46.864;15.216;2023-10-09T20:33:43;17.10;99.90
1678;DHT22;6034;46.864;15.216;2023-10-09T20:36:11;17.30;99.90
1678;DHT22;6034;46.864;15.216;2023-10-09T20:38:41;17.50;99.90
1678;DHT22;6034;46.864;15.216;2023-10-09T20:41:08;17.50;99.90
1678;DHT22;6034;46.864;15.216;2023-10-09T20:43:36;17.70;99.90
1678;DHT22;6034;46.864;15.216;2023-10-09T20:46:06;17.80;99.90
1678;DHT22;6034;46.864;15.216;2023-10-09T20:48:35;17.90;99.90
1678;DHT22;6034;46.864;15.216;2023-10-09T20:51:03;18.00;99.90
1678;DHT22;6034;46.864;15.216;2023-10-09T20:53:31;18.20;99.90
1678;DHT22;6034;46.864;15.216;2023-10-09T20:56:00;18.20;98.10
1678;DHT22;6034;46.864;15.216;2023-10-09T20:58:27;18.30;98.60
1678;DHT22;6034;46.864;15.216;2023-10-09T21:00:54;18.50;98.00
1678;DHT22;6034;46.864;15.216;2023-10-09T21:03:25;18.40;98.10
1678;DHT22;6034;46.864;15.216;2023-10-09T21:05:55;18.40;97.50
1678;DHT22;6034;46.864;15.216;2023-10-09T21:08:24;18.50;97.70
1678;DHT22;6034;46.864;15.216;2023-10-09T21:10:51;18.50;96.40
1678;DHT22;6034;46.864;15.216;2023-10-09T21:13:19;18.60;97.00
1678;DHT22;6034;46.864;15.216;2023-10-09T21:15:46;18.60;96.40
1678;DHT22;6034;46.864;15.216;2023-10-09T21:18:13;18.60;97.20
1678;DHT22;6034;46.864;15.216;2023-10-09T21:20:42;18.60;96.20
1678;DHT22;6034;46.864;15.216;2023-10-09T21:23:11;18.70;95.80
1678;DHT22;6034;46.864;15.216;2023-10-09T21:25:39;18.70;96.50
1678;DHT22;6034;46.864;15.216;2023-10-09T21:28:06;18.70;95.30